Nassau Bay, Texas
Current Conditions -  °F | °C
As of 10:50 AM on Wednesday 26 Nov 2014 (Local Time) from KEFD Reporting Station
Clear Clear  
Wind Chill: 70°   Ceiling: Unl
Heat Index: 70°   Visibility: 10mi
Dew Point: 45°   Wind: 17mph
Humidity: 40%   Direction: 220°SW
Pressure: 30.25"   Gusts: NA
Location:  29.5712°N, 95.0773°W
Report Text: KEFD 261650Z 22015KT 10SM CLR 21/07 A3025
Loading
Personal Weather Stations






























Interactive Weather Map New forecast layout! Learn more

10-Day Weather Forecast

Advertisements
Track Severe Weather on mobile